Time;durP1;ratioP1;P1;durP2;ratioP2;P2;SDS_P1;SDS_P2;PMS_P1;PMS_P2;Temp;Humidity;BMP_temperature;BMP_pressure;BME280_temperature;BME280_humidity;BME280_pressure;Samples;Min_cycle;Max_cycle;Signal;HPM_P1;HPM_P2
2023/07/16 00:01:32;;;;;;;11.93;2.17;;;;;;;;;;6210558;23;20020;-62
2023/07/16 00:03:58;;;;;;;8.95;2.55;;;;;;;;;;6210868;23;20317;-62
2023/07/16 00:06:24;;;;;;;7.03;1.92;;;;;;;;;;6210502;23;20055;-62
2023/07/16 00:08:50;;;;;;;6.75;1.88;;;;;;;;;;6210737;23;20025;-62
2023/07/16 00:11:16;;;;;;;9.15;2.30;;;;;;;;;;6210801;23;20012;-62
2023/07/16 00:13:46;;;;;;;10.82;2.28;;;;;;;;;;6210673;23;20063;-62
2023/07/16 00:16:13;;;;;;;4.05;2.00;;;;;;;;;;6210959;23;20044;-62
2023/07/16 00:18:39;;;;;;;6.80;2.50;;;;;;;;;;6210796;23;20016;-62
2023/07/16 00:21:05;;;;;;;4.75;2.05;;;;;;;;;;6210188;23;20009;-62
2023/07/16 00:23:31;;;;;;;8.90;2.50;;;;;;;;;;6209948;23;20387;-62
2023/07/16 00:25:57;;;;;;;10.30;2.45;;;;;;;;;;6212453;23;20012;-62
2023/07/16 00:28:23;;;;;;;9.43;2.20;;;;;;;;;;6212249;23;20015;-62
2023/07/16 00:30:49;;;;;;;9.50;2.63;;;;;;;;;;6212774;23;20024;-62
2023/07/16 00:33:15;;;;;;;6.03;2.10;;;;;;;;;;6212756;23;20016;-62
2023/07/16 00:35:48;;;;;;;8.73;2.65;;;;;;;;;;6211952;23;20451;-62
2023/07/16 00:38:14;;;;;;;8.23;2.40;;;;;;;;;;6212225;23;20016;-62
2023/07/16 00:40:40;;;;;;;9.98;2.47;;;;;;;;;;6212622;23;20343;-62
2023/07/16 00:43:06;;;;;;;8.68;2.10;;;;;;;;;;6211937;23;20233;-62
2023/07/16 00:45:32;;;;;;;9.75;2.40;;;;;;;;;;6212215;23;20458;-62
2023/07/16 00:47:58;;;;;;;9.55;2.50;;;;;;;;;;6212480;23;20016;-62
2023/07/16 00:50:24;;;;;;;13.50;2.67;;;;;;;;;;6211886;23;20048;-62
2023/07/16 00:52:50;;;;;;;6.47;2.00;;;;;;;;;;6212379;23;20020;-62
2023/07/16 00:55:16;;;;;;;9.05;2.60;;;;;;;;;;6212674;23;20351;-62
2023/07/16 00:57:42;;;;;;;7.13;2.40;;;;;;;;;;6212073;23;20380;-62
2023/07/16 01:00:09;;;;;;;10.35;2.38;;;;;;;;;;6212171;23;20020;-62
2023/07/16 01:02:36;;;;;;;11.00;2.85;;;;;;;;;;6212484;23;20074;-62
2023/07/16 01:05:02;;;;;;;5.85;2.03;;;;;;;;;;6211637;23;20012;-62
2023/07/16 01:07:30;;;;;;;6.55;2.38;;;;;;;;;;6212341;23;20348;-62
2023/07/16 01:09:56;;;;;;;7.60;2.40;;;;;;;;;;6212185;23;20138;-62
2023/07/16 01:12:23;;;;;;;11.02;2.65;;;;;;;;;;6211390;23;20019;-62
2023/07/16 01:14:50;;;;;;;10.75;2.55;;;;;;;;;;6212455;23;20012;-62
2023/07/16 01:17:16;;;;;;;7.55;2.00;;;;;;;;;;6212318;23;20043;-62
2023/07/16 01:19:42;;;;;;;9.75;2.45;;;;;;;;;;6211860;23;20016;-62
2023/07/16 01:22:26;;;;;;;6.20;2.13;;;;;;;;;;6212314;23;20050;-62
2023/07/16 01:25:11;;;;;;;8.45;2.80;;;;;;;;;;6211616;23;20019;-62
2023/07/16 01:27:36;;;;;;;10.70;3.00;;;;;;;;;;6211663;23;20398;-62
2023/07/16 01:30:04;;;;;;;8.38;2.17;;;;;;;;;;6212161;23;20095;-62
2023/07/16 01:32:31;;;;;;;5.90;2.33;;;;;;;;;;6212164;23;20028;-62
2023/07/16 01:34:57;;;;;;;9.45;2.55;;;;;;;;;;6211364;23;20427;-62
2023/07/16 01:37:24;;;;;;;7.35;2.80;;;;;;;;;;6212017;23;20009;-62
2023/07/16 01:39:50;;;;;;;7.45;2.40;;;;;;;;;;6212091;23;20291;-62
2023/07/16 01:42:16;;;;;;;17.45;3.85;;;;;;;;;;6211757;23;20592;-62
2023/07/16 01:44:42;;;;;;;11.15;3.50;;;;;;;;;;6211669;23;20016;-62
2023/07/16 01:47:12;;;;;;;9.50;2.63;;;;;;;;;;6211821;23;20013;-62
2023/07/16 01:49:42;;;;;;;7.90;2.70;;;;;;;;;;6211055;23;20024;-62
2023/07/16 01:52:09;;;;;;;8.43;3.10;;;;;;;;;;6184805;23;20036;-62
2023/07/16 01:54:35;;;;;;;9.13;2.78;;;;;;;;;;6211866;23;20534;-62
2023/07/16 01:57:01;;;;;;;9.82;3.20;;;;;;;;;;6211065;23;20071;-62
2023/07/16 01:59:27;;;;;;;7.10;3.05;;;;;;;;;;6211759;23;20447;-62
2023/07/16 02:01:53;;;;;;;8.65;2.80;;;;;;;;;;6211698;23;20095;-62
2023/07/16 02:04:19;;;;;;;6.30;3.00;;;;;;;;;;6211499;23;20016;-62
2023/07/16 02:06:45;;;;;;;10.52;3.17;;;;;;;;;;6211824;23;20020;-62
2023/07/16 02:09:11;;;;;;;7.38;3.40;;;;;;;;;;6211679;23;20092;-62
2023/07/16 02:11:37;;;;;;;7.68;3.13;;;;;;;;;;6211130;23;20013;-62
2023/07/16 02:14:03;;;;;;;7.95;3.33;;;;;;;;;;6211667;23;20016;-62
2023/07/16 02:16:29;;;;;;;9.07;3.22;;;;;;;;;;6211863;23;20508;-62
2023/07/16 02:18:55;;;;;;;8.32;3.40;;;;;;;;;;6211453;23;20005;-62
2023/07/16 02:21:21;;;;;;;10.35;3.38;;;;;;;;;;6211428;23;20016;-62
2023/07/16 02:23:47;;;;;;;7.80;3.10;;;;;;;;;;6211618;23;20024;-62
2023/07/16 02:26:13;;;;;;;10.27;3.47;;;;;;;;;;6211053;23;20009;-62
2023/07/16 02:28:39;;;;;;;10.15;3.33;;;;;;;;;;6211557;23;20012;-62
2023/07/16 02:31:05;;;;;;;9.35;3.72;;;;;;;;;;6211727;23;20344;-62
2023/07/16 02:33:31;;;;;;;6.93;3.45;;;;;;;;;;6211274;23;20021;-62
2023/07/16 02:35:57;;;;;;;6.88;3.20;;;;;;;;;;6211198;23;20017;-62
2023/07/16 02:38:23;;;;;;;9.82;3.45;;;;;;;;;;6211444;23;20374;-62
2023/07/16 02:40:49;;;;;;;8.35;3.60;;;;;;;;;;6211028;23;20024;-62
2023/07/16 02:43:15;;;;;;;9.05;3.58;;;;;;;;;;6211177;23;20062;-62
2023/07/16 02:45:41;;;;;;;7.22;3.20;;;;;;;;;;6211236;23;20499;-62
2023/07/16 02:48:07;;;;;;;9.43;3.50;;;;;;;;;;6210776;23;20013;-62
2023/07/16 02:50:37;;;;;;;11.02;3.50;;;;;;;;;;6211147;23;20444;-62
2023/07/16 02:53:07;;;;;;;10.38;3.85;;;;;;;;;;6211059;23;20016;-62
2023/07/16 02:55:33;;;;;;;11.40;3.03;;;;;;;;;;6210681;23;20036;-62
2023/07/16 02:58:02;;;;;;;12.48;3.40;;;;;;;;;;6210972;23;20095;-62
2023/07/16 03:00:28;;;;;;;10.50;3.60;;;;;;;;;;6211188;23;20017;-62
2023/07/16 03:02:54;;;;;;;10.38;3.65;;;;;;;;;;6210364;23;20017;-62
2023/07/16 03:05:20;;;;;;;10.70;3.58;;;;;;;;;;6210973;23;20308;-62
2023/07/16 03:07:46;;;;;;;12.00;3.65;;;;;;;;;;6211177;23;20009;-62
2023/07/16 03:10:12;;;;;;;9.15;3.35;;;;;;;;;;6210273;23;20016;-62
2023/07/16 03:12:38;;;;;;;13.18;4.35;;;;;;;;;;6210996;23;20047;-62
2023/07/16 03:15:04;;;;;;;13.32;3.25;;;;;;;;;;6211544;23;20020;-62
2023/07/16 03:17:30;;;;;;;10.27;3.22;;;;;;;;;;6210926;23;20351;-62
2023/07/16 03:19:56;;;;;;;7.47;3.95;;;;;;;;;;6211147;23;20017;-62
2023/07/16 03:22:22;;;;;;;11.55;4.13;;;;;;;;;;6210913;23;20016;-62
2023/07/16 03:24:48;;;;;;;9.77;4.25;;;;;;;;;;6210586;23;20012;-62
2023/07/16 03:27:14;;;;;;;15.13;4.57;;;;;;;;;;6210998;23;20071;-62
2023/07/16 03:29:40;;;;;;;7.75;3.75;;;;;;;;;;6210589;23;20099;-62
2023/07/16 03:32:06;;;;;;;11.23;3.90;;;;;;;;;;6210483;23;20019;-62
2023/07/16 03:34:32;;;;;;;12.73;3.92;;;;;;;;;;6210666;23;20008;-62
2023/07/16 03:36:58;;;;;;;9.88;4.00;;;;;;;;;;6210767;23;20023;-62
2023/07/16 03:39:24;;;;;;;14.75;4.40;;;;;;;;;;6210589;23;20032;-62
2023/07/16 03:41:50;;;;;;;11.23;3.65;;;;;;;;;;6210841;23;20359;-62
2023/07/16 03:44:16;;;;;;;8.20;3.72;;;;;;;;;;6210922;23;20016;-62
2023/07/16 03:46:42;;;;;;;9.15;4.18;;;;;;;;;;6210493;23;20058;-62
2023/07/16 03:49:08;;;;;;;10.00;3.90;;;;;;;;;;6210489;23;20017;-62
2023/07/16 03:51:35;;;;;;;7.15;3.65;;;;;;;;;;6210727;23;20016;-62
2023/07/16 03:54:01;;;;;;;12.32;3.95;;;;;;;;;;6210480;23;20043;-62
2023/07/16 03:56:27;;;;;;;9.20;4.00;;;;;;;;;;6210916;23;20012;-62
2023/07/16 03:58:53;;;;;;;9.48;4.30;;;;;;;;;;6210608;23;20020;-62
2023/07/16 04:01:18;;;;;;;9.05;3.90;;;;;;;;;;6210270;23;20012;-62
2023/07/16 04:03:44;;;;;;;17.02;4.55;;;;;;;;;;6210827;23;20016;-62
2023/07/16 04:06:11;;;;;;;13.63;3.95;;;;;;;;;;6210979;23;20019;-62
2023/07/16 04:08:37;;;;;;;11.65;4.30;;;;;;;;;;6210578;23;20016;-62
2023/07/16 04:11:06;;;;;;;11.00;4.20;;;;;;;;;;6210743;23;20348;-62
2023/07/16 04:13:33;;;;;;;11.50;4.45;;;;;;;;;;6210367;23;20013;-62
2023/07/16 04:15:59;;;;;;;12.98;4.80;;;;;;;;;;6210481;23;20508;-62
2023/07/16 04:18:25;;;;;;;10.02;4.10;;;;;;;;;;6210810;23;20420;-62
2023/07/16 04:20:51;;;;;;;11.13;4.10;;;;;;;;;;6210782;23;20334;-62
2023/07/16 04:23:17;;;;;;;8.88;4.10;;;;;;;;;;6210265;23;20514;-62
2023/07/16 04:25:43;;;;;;;9.38;4.15;;;;;;;;;;6210714;23;20021;-62
2023/07/16 04:28:10;;;;;;;10.32;3.75;;;;;;;;;;6210771;23;20348;-62
2023/07/16 04:30:37;;;;;;;15.13;4.10;;;;;;;;;;6210412;23;20075;-62
2023/07/16 04:33:03;;;;;;;13.50;4.68;;;;;;;;;;6211125;23;20424;-62
2023/07/16 04:35:29;;;;;;;10.02;4.20;;;;;;;;;;6210052;23;20051;-62
2023/07/16 04:37:55;;;;;;;8.70;4.07;;;;;;;;;;6210542;23;20009;-62
2023/07/16 04:40:21;;;;;;;9.80;4.63;;;;;;;;;;6210665;23;20550;-62
2023/07/16 04:42:47;;;;;;;7.90;4.00;;;;;;;;;;6210953;23;20012;-62
2023/07/16 04:45:13;;;;;;;10.43;3.92;;;;;;;;;;6210319;23;20023;-62
2023/07/16 04:47:39;;;;;;;9.75;4.10;;;;;;;;;;6210546;23;20012;-62
2023/07/16 04:50:05;;;;;;;10.00;3.90;;;;;;;;;;6184271;23;20096;-62
2023/07/16 04:52:31;;;;;;;17.23;4.72;;;;;;;;;;6210678;23;20066;-62
2023/07/16 04:54:57;;;;;;;11.73;3.63;;;;;;;;;;6210352;23;20013;-62
2023/07/16 04:57:23;;;;;;;11.05;3.63;;;;;;;;;;6210636;23;20047;-62
2023/07/16 04:59:49;;;;;;;13.45;4.70;;;;;;;;;;6210320;23;20403;-62
2023/07/16 05:02:17;;;;;;;10.23;4.57;;;;;;;;;;6210120;23;20012;-62
2023/07/16 05:04:47;;;;;;;10.98;4.07;;;;;;;;;;6210519;23;20012;-62
2023/07/16 05:07:14;;;;;;;11.57;4.90;;;;;;;;;;6210642;23;20017;-62
2023/07/16 05:09:40;;;;;;;8.18;3.75;;;;;;;;;;6210104;23;20099;-62
2023/07/16 05:12:06;;;;;;;9.65;3.80;;;;;;;;;;6212388;23;20443;-62
2023/07/16 05:14:42;;;;;;;9.30;3.50;;;;;;;;;;6210505;23;20087;-62
2023/07/16 05:17:08;;;;;;;9.30;3.63;;;;;;;;;;6212059;23;20074;-62
2023/07/16 05:19:34;;;;;;;11.27;3.40;;;;;;;;;;6212716;23;20475;-62
2023/07/16 05:22:00;;;;;;;12.93;4.28;;;;;;;;;;6212209;23;20458;-62
2023/07/16 05:24:26;;;;;;;12.35;3.50;;;;;;;;;;6211745;23;20083;-62
2023/07/16 05:26:54;;;;;;;10.65;3.97;;;;;;;;;;6211997;23;20020;-62
2023/07/16 05:29:20;;;;;;;8.18;3.05;;;;;;;;;;6212179;23;20489;-62
2023/07/16 05:31:46;;;;;;;11.18;3.55;;;;;;;;;;6211371;23;20055;-62
2023/07/16 05:34:12;;;;;;;9.80;3.13;;;;;;;;;;6211877;23;20023;-62
2023/07/16 05:36:38;;;;;;;8.40;3.45;;;;;;;;;;6211829;23;20044;-62
2023/07/16 05:39:04;;;;;;;11.43;3.50;;;;;;;;;;6211695;23;20470;-62
2023/07/16 05:41:30;;;;;;;6.80;3.50;;;;;;;;;;6212211;23;20024;-62
2023/07/16 05:43:56;;;;;;;10.35;3.97;;;;;;;;;;6212175;23;20032;-62
2023/07/16 05:46:22;;;;;;;8.40;3.92;;;;;;;;;;6211630;23;20023;-62
2023/07/16 05:48:48;;;;;;;10.32;3.97;;;;;;;;;;6212062;23;20092;-62
2023/07/16 05:51:14;;;;;;;12.38;3.90;;;;;;;;;;6212090;23;20323;-62
2023/07/16 05:53:40;;;;;;;9.95;3.80;;;;;;;;;;6211465;23;20140;-62
2023/07/16 05:56:06;;;;;;;17.02;4.35;;;;;;;;;;6211763;23;20063;-62
2023/07/16 05:58:32;;;;;;;10.35;4.00;;;;;;;;;;6212226;23;20047;-62
2023/07/16 06:00:58;;;;;;;11.70;4.15;;;;;;;;;;6211426;23;20070;-62
2023/07/16 06:03:24;;;;;;;9.48;3.55;;;;;;;;;;6211700;23;20013;-62
2023/07/16 06:05:50;;;;;;;14.38;3.90;;;;;;;;;;6211570;23;20020;-62
2023/07/16 06:08:16;;;;;;;9.27;4.22;;;;;;;;;;6211510;23;20013;-62
2023/07/16 06:10:42;;;;;;;11.82;3.78;;;;;;;;;;6211764;23;20447;-62
2023/07/16 06:13:08;;;;;;;11.90;4.53;;;;;;;;;;6211993;23;20023;-62
2023/07/16 06:15:34;;;;;;;9.38;3.58;;;;;;;;;;6209880;23;20428;-62
2023/07/16 06:18:00;;;;;;;8.57;3.90;;;;;;;;;;6212183;23;20012;-62
2023/07/16 06:20:26;;;;;;;10.38;4.10;;;;;;;;;;6211831;23;20440;-62
2023/07/16 06:22:51;;;;;;;11.45;4.00;;;;;;;;;;6184233;23;20020;-62
2023/07/16 06:25:17;;;;;;;19.25;4.25;;;;;;;;;;6185230;23;20024;-62
2023/07/16 06:27:43;;;;;;;10.40;4.10;;;;;;;;;;6211779;23;20070;-62
2023/07/16 06:30:09;;;;;;;10.30;4.55;;;;;;;;;;6211583;23;20067;-62
2023/07/16 06:32:35;;;;;;;7.25;3.88;;;;;;;;;;6211753;23;20012;-62
2023/07/16 06:35:01;;;;;;;10.52;4.57;;;;;;;;;;6209615;23;20079;-62
2023/07/16 06:37:27;;;;;;;16.75;4.65;;;;;;;;;;6211070;23;20340;-62
2023/07/16 06:39:53;;;;;;;11.00;4.57;;;;;;;;;;6211235;23;20017;-62
2023/07/16 06:42:19;;;;;;;9.52;4.70;;;;;;;;;;6211368;23;20021;-62
2023/07/16 06:44:45;;;;;;;8.88;4.20;;;;;;;;;;6210763;23;20024;-62
2023/07/16 06:47:11;;;;;;;10.23;4.18;;;;;;;;;;6211458;23;20016;-62
2023/07/16 06:49:37;;;;;;;11.15;4.80;;;;;;;;;;6211097;23;20059;-62
2023/07/16 06:52:04;;;;;;;9.27;4.20;;;;;;;;;;6210740;23;20008;-62
2023/07/16 06:54:30;;;;;;;9.85;4.20;;;;;;;;;;6211352;23;20016;-62
2023/07/16 06:56:56;;;;;;;9.63;4.47;;;;;;;;;;6211375;23;20078;-62
2023/07/16 06:59:21;;;;;;;12.63;5.18;;;;;;;;;;6210903;23;20017;-62
2023/07/16 07:01:47;;;;;;;8.57;4.57;;;;;;;;;;6211206;23;20040;-62
2023/07/16 07:04:13;;;;;;;9.02;4.10;;;;;;;;;;6211212;23;20109;-62
2023/07/16 07:06:40;;;;;;;8.73;4.28;;;;;;;;;;6211120;23;20016;-62
2023/07/16 07:09:06;;;;;;;13.75;4.80;;;;;;;;;;6211323;23;20028;-62
2023/07/16 07:11:32;;;;;;;11.00;4.70;;;;;;;;;;6211458;23;20083;-62
2023/07/16 07:13:58;;;;;;;11.23;4.35;;;;;;;;;;6210945;23;20272;-62
2023/07/16 07:16:24;;;;;;;11.10;4.43;;;;;;;;;;6211287;23;20019;-62
2023/07/16 07:18:50;;;;;;;10.35;4.65;;;;;;;;;;6211039;23;20039;-62
2023/07/16 07:21:16;;;;;;;12.27;4.85;;;;;;;;;;6210778;23;20020;-62
2023/07/16 07:23:42;;;;;;;11.35;4.63;;;;;;;;;;6211118;23;20008;-62
2023/07/16 07:26:08;;;;;;;12.68;4.03;;;;;;;;;;6210749;23;20084;-62
2023/07/16 07:28:34;;;;;;;9.77;4.07;;;;;;;;;;6210547;23;20016;-62
2023/07/16 07:31:00;;;;;;;8.65;4.72;;;;;;;;;;6210755;23;20021;-62
2023/07/16 07:33:26;;;;;;;10.45;4.63;;;;;;;;;;6210751;23;20013;-62
2023/07/16 07:35:55;;;;;;;12.68;4.38;;;;;;;;;;6209960;23;20335;-62
2023/07/16 07:38:22;;;;;;;9.63;3.90;;;;;;;;;;6210889;23;20023;-62
2023/07/16 07:40:48;;;;;;;9.55;4.68;;;;;;;;;;6210787;23;20083;-62
2023/07/16 07:43:14;;;;;;;9.65;4.63;;;;;;;;;;6210427;23;20071;-62
2023/07/16 07:45:40;;;;;;;10.70;4.15;;;;;;;;;;6183990;23;20021;-62
2023/07/16 07:48:06;;;;;;;9.52;4.32;;;;;;;;;;6211008;23;20067;-62
2023/07/16 07:50:32;;;;;;;8.82;4.28;;;;;;;;;;6210266;23;20017;-62
2023/07/16 07:52:58;;;;;;;10.85;4.25;;;;;;;;;;6210801;23;20082;-62
2023/07/16 07:55:24;;;;;;;12.18;4.22;;;;;;;;;;6210649;23;20013;-62
2023/07/16 07:57:50;;;;;;;10.77;4.07;;;;;;;;;;6210913;23;20428;-62
2023/07/16 08:00:16;;;;;;;11.30;4.93;;;;;;;;;;6211300;23;20016;-62
2023/07/16 08:02:42;;;;;;;9.55;4.47;;;;;;;;;;6210641;23;20091;-62
2023/07/16 08:05:08;;;;;;;11.23;4.30;;;;;;;;;;6210558;23;20051;-62
2023/07/16 08:07:34;;;;;;;10.02;4.20;;;;;;;;;;6210998;23;20075;-62
2023/07/16 08:10:00;;;;;;;10.95;4.13;;;;;;;;;;6210397;23;20380;-62
2023/07/16 08:12:26;;;;;;;11.88;4.53;;;;;;;;;;6210488;23;20071;-62
2023/07/16 08:14:52;;;;;;;11.80;4.93;;;;;;;;;;6210556;23;20017;-62
2023/07/16 08:17:18;;;;;;;10.25;4.40;;;;;;;;;;6210945;23;20012;-62
2023/07/16 08:19:44;;;;;;;10.50;4.18;;;;;;;;;;6210391;23;20020;-62
2023/07/16 08:22:11;;;;;;;7.05;4.05;;;;;;;;;;6210167;23;20092;-62
2023/07/16 08:24:37;;;;;;;12.18;5.05;;;;;;;;;;6210686;23;20013;-62
2023/07/16 08:27:04;;;;;;;7.72;3.90;;;;;;;;;;6210625;23;20013;-62
2023/07/16 08:29:30;;;;;;;8.70;4.40;;;;;;;;;;6210104;23;20017;-62
2023/07/16 08:31:56;;;;;;;13.45;5.35;;;;;;;;;;6210561;23;20480;-62
2023/07/16 08:34:22;;;;;;;10.35;5.03;;;;;;;;;;6210692;23;20012;-62
2023/07/16 08:36:48;;;;;;;8.85;4.60;;;;;;;;;;6209851;23;20019;-62
2023/07/16 08:39:14;;;;;;;11.95;4.68;;;;;;;;;;6210598;23;20021;-62
2023/07/16 08:41:40;;;;;;;7.95;4.95;;;;;;;;;;6210491;23;20229;-62
2023/07/16 08:44:06;;;;;;;10.43;5.20;;;;;;;;;;6209877;23;20020;-62
2023/07/16 08:46:33;;;;;;;9.75;4.60;;;;;;;;;;6212289;23;20013;-62
2023/07/16 08:48:59;;;;;;;12.20;5.05;;;;;;;;;;6211997;23;20017;-62
2023/07/16 08:51:26;;;;;;;7.68;4.32;;;;;;;;;;6211910;23;20080;-62
2023/07/16 08:53:52;;;;;;;14.40;5.15;;;;;;;;;;6212655;23;20008;-62
2023/07/16 08:56:18;;;;;;;11.68;4.95;;;;;;;;;;6212451;23;20561;-62
2023/07/16 08:58:45;;;;;;;10.65;4.57;;;;;;;;;;6211670;23;20051;-62
2023/07/16 09:01:11;;;;;;;8.95;4.50;;;;;;;;;;6212474;23;20328;-62
2023/07/16 09:03:37;;;;;;;9.65;4.38;;;;;;;;;;6212122;23;20526;-62
2023/07/16 09:06:04;;;;;;;14.25;4.75;;;;;;;;;;6211960;23;20043;-62
2023/07/16 09:08:30;;;;;;;10.93;4.25;;;;;;;;;;6212619;23;20024;-62
2023/07/16 09:10:56;;;;;;;12.23;4.00;;;;;;;;;;6212461;23;20462;-62
2023/07/16 09:13:26;;;;;;;8.40;3.75;;;;;;;;;;6185234;23;20082;-62
2023/07/16 09:15:52;;;;;;;8.57;3.60;;;;;;;;;;6212589;23;20053;-62
2023/07/16 09:18:22;;;;;;;7.93;4.07;;;;;;;;;;6212542;23;20017;-62
2023/07/16 09:20:48;;;;;;;10.00;4.20;;;;;;;;;;6212081;23;20019;-62
2023/07/16 09:23:16;;;;;;;13.40;4.88;;;;;;;;;;6212402;23;20016;-62
2023/07/16 09:25:44;;;;;;;12.00;4.75;;;;;;;;;;6211774;23;20020;-62
2023/07/16 09:28:10;;;;;;;11.27;4.45;;;;;;;;;;6211368;23;20087;-62
2023/07/16 09:30:36;;;;;;;10.00;4.47;;;;;;;;;;6212074;23;20319;-62
2023/07/16 09:33:15;;;;;;;8.52;4.05;;;;;;;;;;6212149;23;20063;-62
2023/07/16 09:35:41;;;;;;;7.57;4.28;;;;;;;;;;6211356;23;20025;-62
2023/07/16 09:38:10;;;;;;;9.48;3.92;;;;;;;;;;6212167;23;20088;-62
2023/07/16 09:40:37;;;;;;;10.82;4.30;;;;;;;;;;6212174;23;20020;-62
2023/07/16 09:43:07;;;;;;;6.80;4.25;;;;;;;;;;6211416;23;20013;-62
2023/07/16 09:45:33;;;;;;;8.63;3.90;;;;;;;;;;6212246;23;20020;-62
2023/07/16 09:47:59;;;;;;;11.88;4.35;;;;;;;;;;6212236;23;20012;-62
2023/07/16 09:50:27;;;;;;;9.98;4.72;;;;;;;;;;6211706;23;20309;-62
2023/07/16 09:52:54;;;;;;;10.60;3.97;;;;;;;;;;6212229;23;20100;-62
2023/07/16 09:55:22;;;;;;;8.82;4.15;;;;;;;;;;6211843;23;20020;-62
2023/07/16 09:57:48;;;;;;;9.23;3.90;;;;;;;;;;6211308;23;20020;-62
2023/07/16 10:00:16;;;;;;;11.18;4.03;;;;;;;;;;6211977;23;20013;-62
2023/07/16 10:02:42;;;;;;;9.27;4.63;;;;;;;;;;6211388;23;20020;-62
2023/07/16 10:05:27;;;;;;;9.20;4.32;;;;;;;;;;6211317;23;20016;-62
2023/07/16 10:07:59;;;;;;;10.43;4.07;;;;;;;;;;6212345;23;20012;-62
2023/07/16 10:10:25;;;;;;;;;;;;;;;;;;6212455;23;20246;-62
2023/07/16 10:12:59;;;;;;;12.85;3.97;;;;;;;;;;6211189;23;20238;-62
2023/07/16 10:15:26;;;;;;;6.97;3.97;;;;;;;;;;6211758;23;20036;-62
2023/07/16 10:17:52;;;;;;;10.32;3.78;;;;;;;;;;6211721;23;20017;-62
2023/07/16 10:20:28;;;;;;;10.45;4.40;;;;;;;;;;6211353;23;20012;-62
2023/07/16 10:22:54;;;;;;;11.27;4.63;;;;;;;;;;6211625;23;20065;-62
2023/07/16 10:25:20;;;;;;;9.02;4.35;;;;;;;;;;6211681;23;20380;-62
2023/07/16 10:27:47;;;;;;;9.30;4.40;;;;;;;;;;6211257;23;20016;-62
2023/07/16 10:30:13;;;;;;;9.00;4.13;;;;;;;;;;6211728;23;20013;-62
2023/07/16 10:32:40;;;;;;;7.47;3.88;;;;;;;;;;6211722;23;20048;-62
2023/07/16 10:35:06;;;;;;;8.95;4.53;;;;;;;;;;6210985;23;20032;-62
2023/07/16 10:37:33;;;;;;;11.75;4.78;;;;;;;;;;6211349;23;20013;-62
2023/07/16 10:39:59;;;;;;;8.75;4.10;;;;;;;;;;6211513;23;20020;-62
2023/07/16 10:42:26;;;;;;;10.68;4.90;;;;;;;;;;6210886;23;20325;-62
2023/07/16 10:44:53;;;;;;;7.32;3.50;;;;;;;;;;6211450;23;20362;-62
2023/07/16 10:47:47;;;;;;;9.77;3.80;;;;;;;;;;6211466;23;20020;-62
2023/07/16 10:50:13;;;;;;;6.90;4.03;;;;;;;;;;6206936;23;20023;-62
2023/07/16 10:52:39;;;;;;;11.65;4.10;;;;;;;;;;6184460;23;20398;-62
2023/07/16 10:55:05;;;;;;;7.93;4.05;;;;;;;;;;6211491;23;20016;-62
2023/07/16 10:57:31;;;;;;;4.70;3.30;;;;;;;;;;6211196;23;20087;-62
2023/07/16 10:59:58;;;;;;;10.45;4.10;;;;;;;;;;6211539;23;20482;-62
2023/07/16 11:02:25;;;;;;;8.35;3.83;;;;;;;;;;6211339;23;20009;-62
2023/07/16 11:04:54;;;;;;;7.53;4.13;;;;;;;;;;6210815;23;20364;-62
2023/07/16 11:07:20;;;;;;;8.65;3.70;;;;;;;;;;6211235;23;20024;-62
2023/07/16 11:09:48;;;;;;;6.00;3.85;;;;;;;;;;6211352;23;20505;-62
2023/07/16 11:12:15;;;;;;;11.57;3.97;;;;;;;;;;6210690;23;20040;-62
2023/07/16 11:14:45;;;;;;;9.30;3.85;;;;;;;;;;6211212;23;20047;-62
2023/07/16 11:17:11;;;;;;;7.50;3.63;;;;;;;;;;6211266;23;20215;-62
2023/07/16 11:19:38;;;;;;;10.38;4.13;;;;;;;;;;6210487;23;20016;-62
2023/07/16 11:22:05;;;;;;;11.23;3.85;;;;;;;;;;6211110;23;20034;-62
2023/07/16 11:24:41;;;;;;;8.85;4.30;;;;;;;;;;6210713;23;20251;-62
2023/07/16 11:27:13;;;;;;;10.68;4.00;;;;;;;;;;6210750;23;20060;-62
2023/07/16 11:29:41;;;;;;;7.72;4.30;;;;;;;;;;6211019;23;20163;-62
2023/07/16 11:32:08;;;;;;;7.80;3.60;;;;;;;;;;6211036;23;20044;-62
2023/07/16 11:34:34;;;;;;;7.03;4.07;;;;;;;;;;6210523;23;20016;-62
2023/07/16 11:37:12;;;;;;;6.88;4.10;;;;;;;;;;6210732;23;20024;-62
2023/07/16 11:39:38;;;;;;;9.23;4.20;;;;;;;;;;6210825;23;20391;-62
2023/07/16 11:42:04;;;;;;;8.32;3.95;;;;;;;;;;6210421;23;20019;-62
2023/07/16 11:44:36;;;;;;;8.25;4.28;;;;;;;;;;6210956;23;20383;-62
2023/07/16 11:47:03;;;;;;;9.57;4.22;;;;;;;;;;6210660;23;20491;-62
2023/07/16 11:49:29;;;;;;;11.10;5.10;;;;;;;;;;6210873;23;20030;-62
2023/07/16 11:51:55;;;;;;;10.43;4.50;;;;;;;;;;6210767;23;20016;-62
2023/07/16 11:54:21;;;;;;;10.70;4.20;;;;;;;;;;6210971;23;20023;-62
2023/07/16 11:56:47;;;;;;;9.63;4.03;;;;;;;;;;6210573;23;20497;-62
2023/07/16 11:59:13;;;;;;;7.70;4.20;;;;;;;;;;6184124;23;20155;-62
2023/07/16 12:01:39;;;;;;;6.53;3.58;;;;;;;;;;6210732;23;20048;-62
2023/07/16 12:04:05;;;;;;;8.80;4.10;;;;;;;;;;6210575;23;20016;-62
2023/07/16 12:06:31;;;;;;;6.57;3.80;;;;;;;;;;6211142;23;20511;-62
2023/07/16 12:08:57;;;;;;;9.95;4.20;;;;;;;;;;6211199;23;20087;-62
2023/07/16 12:11:23;;;;;;;7.80;3.67;;;;;;;;;;6210188;23;20088;-62
2023/07/16 12:13:49;;;;;;;8.55;4.13;;;;;;;;;;6211028;23;20429;-63
2023/07/16 12:16:15;;;;;;;7.35;3.78;;;;;;;;;;6210901;23;20012;-62
2023/07/16 12:18:41;;;;;;;6.88;3.58;;;;;;;;;;6210472;23;20454;-62
2023/07/16 12:21:07;;;;;;;6.35;3.88;;;;;;;;;;6212971;23;20372;-62
2023/07/16 12:23:33;;;;;;;8.43;3.95;;;;;;;;;;6212427;23;20028;-62
2023/07/16 12:25:59;;;;;;;9.80;4.30;;;;;;;;;;6212460;23;20043;-62
2023/07/16 12:28:25;;;;;;;7.10;3.53;;;;;;;;;;6212801;23;20020;-62
2023/07/16 12:30:51;;;;;;;8.48;4.25;;;;;;;;;;6212691;23;20035;-62
2023/07/16 12:33:17;;;;;;;10.52;4.93;;;;;;;;;;6212320;23;20044;-62
2023/07/16 12:35:44;;;;;;;9.07;4.80;;;;;;;;;;6212366;23;20016;-63
2023/07/16 12:38:09;;;;;;;11.25;4.82;;;;;;;;;;6212811;23;20394;-62
2023/07/16 12:40:39;;;;;;;8.02;3.88;;;;;;;;;;6212242;23;20024;-63
2023/07/16 12:43:05;;;;;;;9.68;4.80;;;;;;;;;;6212396;23;20012;-62
2023/07/16 12:45:31;;;;;;;7.95;4.32;;;;;;;;;;6213069;23;20016;-62
2023/07/16 12:47:57;;;;;;;11.98;4.50;;;;;;;;;;6211892;23;20091;-62
2023/07/16 12:50:25;;;;;;;9.77;4.43;;;;;;;;;;6212338;23;20024;-63
2023/07/16 12:52:51;;;;;;;12.88;5.00;;;;;;;;;;6185677;23;20052;-62
2023/07/16 12:55:17;;;;;;;10.45;3.95;;;;;;;;;;6212183;23;20359;-62
2023/07/16 12:57:43;;;;;;;12.32;4.85;;;;;;;;;;6185513;23;20009;-62
2023/07/16 13:00:10;;;;;;;9.77;4.43;;;;;;;;;;6212616;23;20343;-62
2023/07/16 13:02:37;;;;;;;9.93;4.10;;;;;;;;;;6212101;23;20383;-62
2023/07/16 13:05:03;;;;;;;7.68;3.88;;;;;;;;;;6212057;23;20017;-62
2023/07/16 13:07:29;;;;;;;7.45;3.67;;;;;;;;;;6212457;23;20020;-62
2023/07/16 13:09:55;;;;;;;7.28;3.60;;;;;;;;;;6211722;23;20048;-62
2023/07/16 13:12:21;;;;;;;6.75;2.70;;;;;;;;;;6211932;23;20020;-62
2023/07/16 13:14:47;;;;;;;6.53;2.80;;;;;;;;;;6210913;23;20009;-62
2023/07/16 13:17:15;;;;;;;6.40;2.70;;;;;;;;;;6212070;23;20016;-62
2023/07/16 13:19:41;;;;;;;7.10;2.80;;;;;;;;;;6212428;23;20452;-62
2023/07/16 13:22:07;;;;;;;4.93;2.85;;;;;;;;;;6212224;23;20378;-62
2023/07/16 13:24:33;;;;;;;6.75;2.78;;;;;;;;;;6211781;23;20040;-62
2023/07/16 13:26:59;;;;;;;6.30;2.83;;;;;;;;;;6212351;23;20443;-62
2023/07/16 13:29:25;;;;;;;9.88;3.30;;;;;;;;;;6212128;23;20020;-62
2023/07/16 13:31:51;;;;;;;8.05;3.10;;;;;;;;;;6211384;23;20013;-62
2023/07/16 13:34:17;;;;;;;7.10;3.15;;;;;;;;;;6212286;23;20390;-62
2023/07/16 13:36:43;;;;;;;5.00;2.88;;;;;;;;;;6211807;23;20044;-62
2023/07/16 13:39:09;;;;;;;9.02;2.90;;;;;;;;;;6211764;23;20020;-62
2023/07/16 13:41:36;;;;;;;6.35;2.90;;;;;;;;;;6212199;23;20470;-62
2023/07/16 13:44:02;;;;;;;7.18;2.38;;;;;;;;;;6212141;23;20059;-62
2023/07/16 13:46:28;;;;;;;7.82;2.80;;;;;;;;;;6211722;23;20047;-62
2023/07/16 13:48:53;;;;;;;5.25;2.83;;;;;;;;;;6211874;23;20098;-62
2023/07/16 13:51:19;;;;;;;6.25;2.80;;;;;;;;;;6211885;23;20088;-62
2023/07/16 13:53:45;;;;;;;7.22;2.50;;;;;;;;;;6211751;23;20361;-62
2023/07/16 13:56:12;;;;;;;5.00;2.47;;;;;;;;;;6211972;23;20697;-62
2023/07/16 13:58:38;;;;;;;5.50;2.70;;;;;;;;;;6212033;23;20472;-62
2023/07/16 14:01:04;;;;;;;7.10;2.70;;;;;;;;;;6211507;23;20092;-63
2023/07/16 14:03:30;;;;;;;5.03;2.63;;;;;;;;;;6211788;23;20044;-63
2023/07/16 14:05:56;;;;;;;4.28;2.53;;;;;;;;;;6210367;23;20016;-63
2023/07/16 14:08:23;;;;;;;4.75;2.60;;;;;;;;;;6211361;23;20017;-63
2023/07/16 14:10:49;;;;;;;5.22;2.30;;;;;;;;;;6211857;23;20070;-63
2023/07/16 14:13:15;;;;;;;5.35;2.10;;;;;;;;;;6211592;23;20008;-63
2023/07/16 14:15:41;;;;;;;3.60;2.08;;;;;;;;;;6211470;23;20013;-62
2023/07/16 14:18:07;;;;;;;4.38;2.60;;;;;;;;;;6212241;23;20015;-62
2023/07/16 14:20:33;;;;;;;8.00;2.67;;;;;;;;;;6211810;23;20435;-62
2023/07/16 14:22:59;;;;;;;8.50;2.67;;;;;;;;;;6211497;23;20016;-62
2023/07/16 14:25:25;;;;;;;5.38;2.40;;;;;;;;;;6211597;23;20013;-62
2023/07/16 14:27:51;;;;;;;5.05;2.30;;;;;;;;;;6211582;23;20092;-62
2023/07/16 14:30:17;;;;;;;5.88;2.60;;;;;;;;;;6210823;23;20087;-63
2023/07/16 14:32:43;;;;;;;5.65;2.17;;;;;;;;;;6211677;23;20012;-62
2023/07/16 14:35:11;;;;;;;7.03;2.25;;;;;;;;;;6211498;23;20338;-63